createdAt,value
2022-12-31T00:00:28.929Z,1.1
2022-12-31T00:06:19.919Z,2.3
2022-12-31T00:12:03.824Z,0.6
2022-12-31T00:17:46.642Z,0.8
2022-12-31T00:23:29.806Z,1.2
2022-12-31T00:29:13.077Z,0.8
2022-12-31T00:34:56.130Z,0.7
2022-12-31T00:40:39.029Z,0.4
2022-12-31T00:46:22.603Z,1
2022-12-31T00:52:05.595Z,0.6
2022-12-31T00:57:48.514Z,1.3
2022-12-31T01:03:31.290Z,1
2022-12-31T01:09:14.850Z,0.6
2022-12-31T01:14:57.849Z,0.5
2022-12-31T01:20:42.824Z,0.4
2022-12-31T01:26:25.631Z,0.3
2022-12-31T01:32:09.650Z,1
2022-12-31T01:37:52.475Z,1.7
2022-12-31T01:43:49.938Z,0.9
2022-12-31T01:49:37.688Z,1.6
2022-12-31T01:55:23.717Z,0.9
2022-12-31T02:01:09.868Z,0.6
2022-12-31T02:06:55.839Z,0.5
2022-12-31T02:12:38.686Z,1.8
2022-12-31T02:18:25.358Z,1
2022-12-31T02:24:21.945Z,0.6
2022-12-31T02:30:15.355Z,1.1
2022-12-31T02:36:00.023Z,2.9
2022-12-31T02:41:42.778Z,1
2022-12-31T02:47:35.192Z,1.7
2022-12-31T02:53:23.632Z,0.7
2022-12-31T02:59:10.638Z,1.4
2022-12-31T03:04:54.558Z,2.8
2022-12-31T03:10:37.684Z,1.5
2022-12-31T03:16:21.742Z,1.7
2022-12-31T03:22:04.668Z,1.8
2022-12-31T03:27:48.068Z,2.1
2022-12-31T03:33:32.919Z,0.9
2022-12-31T03:39:15.835Z,1.3
2022-12-31T03:44:58.721Z,2.8
2022-12-31T03:50:41.774Z,0.9
2022-12-31T03:56:25.682Z,2
2022-12-31T04:02:09.482Z,3.4
2022-12-31T04:07:52.522Z,1.2
2022-12-31T04:13:36.554Z,1.4
2022-12-31T04:19:19.442Z,1.2
2022-12-31T04:25:02.305Z,1.5
2022-12-31T04:30:45.565Z,4.3
2022-12-31T04:36:28.265Z,3
2022-12-31T04:42:13.145Z,2.2
2022-12-31T04:47:56.062Z,1.4
2022-12-31T04:53:40.241Z,2.3
2022-12-31T04:59:22.946Z,1.5
2022-12-31T05:05:05.896Z,1.9
2022-12-31T05:10:49.480Z,1.6
2022-12-31T05:16:32.438Z,3.3
2022-12-31T05:22:15.446Z,3.6
2022-12-31T05:27:59.237Z,3.7
2022-12-31T05:33:42.014Z,2.6
2022-12-31T05:39:24.646Z,2.1
2022-12-31T05:45:08.269Z,2.9
2022-12-31T05:50:51.398Z,3.2
2022-12-31T05:56:34.044Z,2.4
2022-12-31T06:02:17.113Z,3
2022-12-31T06:08:00.046Z,3
2022-12-31T06:13:43.806Z,2.6
2022-12-31T06:19:26.880Z,1.4
2022-12-31T06:25:10.798Z,3.7
2022-12-31T06:30:53.809Z,2.6
2022-12-31T06:36:36.777Z,3.6
2022-12-31T06:42:19.708Z,2.2
2022-12-31T06:48:03.512Z,1.6
2022-12-31T06:53:46.971Z,3
2022-12-31T06:59:31.829Z,3.9
2022-12-31T07:05:16.328Z,3
2022-12-31T07:11:04.095Z,3.3
2022-12-31T07:16:56.251Z,2.9
2022-12-31T07:22:39.666Z,3.1
2022-12-31T07:28:27.540Z,2.5
2022-12-31T07:34:12.954Z,3.9
2022-12-31T07:40:02.593Z,2.5
2022-12-31T07:45:50.291Z,3.6
2022-12-31T07:51:34.834Z,2.7
2022-12-31T07:57:19.230Z,3.5
2022-12-31T08:03:13.157Z,3.2
2022-12-31T08:09:01.035Z,2.8
2022-12-31T08:14:46.028Z,3.2
2022-12-31T08:20:29.480Z,2.4
2022-12-31T08:26:18.261Z,2.8
2022-12-31T08:32:06.043Z,2.8
2022-12-31T08:37:52.729Z,3.5
2022-12-31T08:43:50.317Z,2
2022-12-31T08:49:34.807Z,3.7
2022-12-31T08:55:21.842Z,4.7
2022-12-31T09:01:08.065Z,7.1
2022-12-31T09:06:57.039Z,4.8
2022-12-31T09:12:44.039Z,3.1
2022-12-31T09:18:36.055Z,4.1
2022-12-31T09:24:20.426Z,6.7
2022-12-31T09:30:04.844Z,4.6
2022-12-31T09:35:51.540Z,8.5
2022-12-31T09:41:42.162Z,4.7
2022-12-31T09:47:36.452Z,4.3
2022-12-31T09:53:30.312Z,3.4
2022-12-31T09:59:22.392Z,6.1
2022-12-31T10:05:15.144Z,3.9
2022-12-31T10:11:00.495Z,5.2
2022-12-31T10:16:50.314Z,6.2
2022-12-31T10:22:52.414Z,5.7
2022-12-31T10:28:41.450Z,2.9
2022-12-31T10:34:28.423Z,4.1
2022-12-31T10:40:18.264Z,3
2022-12-31T10:46:22.795Z,4.7
2022-12-31T10:52:20.150Z,4.3
2022-12-31T10:58:17.555Z,4
2022-12-31T11:04:10.177Z,4.6
2022-12-31T11:10:08.163Z,3.6
2022-12-31T11:15:59.220Z,4.3
2022-12-31T11:21:49.394Z,3.9
2022-12-31T11:27:37.666Z,6.1
2022-12-31T11:33:26.859Z,3.1
2022-12-31T11:39:20.010Z,3.2
2022-12-31T11:45:07.364Z,6.3
2022-12-31T11:50:53.814Z,4.1
2022-12-31T11:56:39.706Z,4.9
2022-12-31T12:02:27.781Z,4.6
2022-12-31T12:08:10.995Z,5.1
2022-12-31T12:13:54.493Z,5
2022-12-31T12:19:38.655Z,4.6
2022-12-31T12:25:24.401Z,5.3
2022-12-31T12:31:07.599Z,4.5
2022-12-31T12:36:52.131Z,4.1
2022-12-31T12:42:35.265Z,5.1
2022-12-31T12:48:21.492Z,4
2022-12-31T12:54:08.734Z,5.9
2022-12-31T13:00:00.027Z,4.7
2022-12-31T13:05:49.825Z,6.7
2022-12-31T13:11:39.263Z,4.6
2022-12-31T13:17:33.318Z,5
2022-12-31T13:23:19.215Z,4.4
2022-12-31T13:29:04.198Z,6.8
2022-12-31T13:34:48.389Z,4.2
2022-12-31T13:40:34.225Z,6.5
2022-12-31T13:46:21.141Z,6.5
2022-12-31T13:52:07.900Z,7
2022-12-31T13:57:53.077Z,3.7
2022-12-31T14:03:40.476Z,4.2
2022-12-31T14:09:25.292Z,3.7
2022-12-31T14:15:13.314Z,4.6
2022-12-31T14:21:01.119Z,4.8
2022-12-31T14:26:46.278Z,6
2022-12-31T14:32:47.011Z,5.4
2022-12-31T14:38:39.134Z,4.1
2022-12-31T14:44:37.796Z,4.3
2022-12-31T14:50:25.350Z,6.8
2022-12-31T14:56:15.890Z,4.6
2022-12-31T15:02:02.168Z,3.5
2022-12-31T15:07:50.929Z,6.8
2022-12-31T15:13:40.578Z,5.9
2022-12-31T15:19:34.671Z,3.7
2022-12-31T15:25:43.022Z,4.1
2022-12-31T15:31:27.466Z,3.8
2022-12-31T15:37:21.275Z,3.7
2022-12-31T15:43:06.911Z,3.9
2022-12-31T15:49:07.944Z,4
2022-12-31T15:54:53.806Z,4.1
2022-12-31T16:00:46.082Z,3.9
2022-12-31T16:06:30.941Z,3.8
2022-12-31T16:12:19.727Z,3.6
2022-12-31T16:18:07.524Z,5.3
2022-12-31T16:23:56.595Z,3.8
2022-12-31T16:29:43.984Z,6.8
2022-12-31T16:35:28.916Z,3.7
2022-12-31T16:41:18.178Z,2.7
2022-12-31T16:47:05.171Z,2.8
2022-12-31T16:52:49.365Z,3.9
2022-12-31T16:58:33.642Z,6.4
2022-12-31T17:04:19.092Z,5.4
2022-12-31T17:10:16.003Z,3.9
2022-12-31T17:15:59.496Z,5.2
2022-12-31T17:21:49.015Z,6.3
2022-12-31T17:27:32.409Z,4.1
2022-12-31T17:33:26.592Z,4.7
2022-12-31T17:39:23.910Z,5
2022-12-31T17:45:08.581Z,4.6
2022-12-31T17:50:53.352Z,4.9
2022-12-31T17:56:36.470Z,4.5
2022-12-31T18:02:20.220Z,5.3
2022-12-31T18:08:03.070Z,4.8
2022-12-31T18:13:46.578Z,5.2
2022-12-31T18:25:32.709Z,4.9
2022-12-31T18:31:19.751Z,6.1
2022-12-31T18:37:02.809Z,5.1
2022-12-31T18:42:46.586Z,6.6
2022-12-31T18:48:29.703Z,6.3
2022-12-31T18:54:13.369Z,4.8
2022-12-31T18:59:57.091Z,4.1
2022-12-31T19:05:40.057Z,4
2022-12-31T19:11:23.295Z,5.7
2022-12-31T19:22:45.381Z,6.7
2022-12-31T19:28:29.169Z,5.4
2022-12-31T19:34:12.045Z,3.6
2022-12-31T19:39:54.752Z,5.8
2022-12-31T19:45:37.741Z,4.3
2022-12-31T19:51:22.038Z,6.5
2022-12-31T19:57:04.922Z,5.7
2022-12-31T20:02:49.432Z,4.3
2022-12-31T20:08:32.467Z,5.1
2022-12-31T20:14:15.292Z,4.9
2022-12-31T20:19:58.145Z,5.3
2022-12-31T20:25:40.911Z,4.7
2022-12-31T20:31:25.992Z,5.3
2022-12-31T20:37:08.904Z,6.7
2022-12-31T20:42:51.667Z,5.5
2022-12-31T20:48:34.529Z,4.6
2022-12-31T20:54:17.352Z,4.5
2022-12-31T21:00:00.334Z,4.3
2022-12-31T21:05:48.741Z,6.7
2022-12-31T21:11:32.092Z,4.7
2022-12-31T21:17:15.057Z,4.4
2022-12-31T21:22:57.812Z,6.4
2022-12-31T21:28:40.623Z,5
2022-12-31T21:34:23.336Z,3.7
2022-12-31T21:40:06.501Z,2.8
2022-12-31T21:45:49.481Z,4
2022-12-31T21:52:31.582Z,3.4
2022-12-31T21:58:28.383Z,6.6
2022-12-31T22:05:00.722Z,5.4
2022-12-31T22:10:14.352Z,5.8
2022-12-31T22:16:07.841Z,5.5
2022-12-31T22:21:50.833Z,5.7
2022-12-31T22:27:33.772Z,4.7
2022-12-31T22:33:16.484Z,4.6
2022-12-31T22:39:00.784Z,4.2
2022-12-31T22:44:43.570Z,5.3
2022-12-31T22:50:26.317Z,6.2
2022-12-31T22:56:09.894Z,4.9
2022-12-31T23:01:52.770Z,4.4
2022-12-31T23:07:35.633Z,4.6
2022-12-31T23:13:18.435Z,8.6
2022-12-31T23:19:07.586Z,9
2022-12-31T23:24:50.607Z,7.2
2022-12-31T23:30:33.619Z,7
2022-12-31T23:36:16.561Z,6.4
2022-12-31T23:42:00.164Z,8.4
2022-12-31T23:47:43.067Z,6.4
2022-12-31T23:53:26.145Z,7.5
2022-12-31T23:59:08.976Z,6.8
